createdAt,value
2023-05-22T05:03:58.325Z,70.00
2023-05-22T05:07:00.116Z,69.80
2023-05-22T05:10:01.835Z,69.80
2023-05-22T05:13:03.704Z,69.80
2023-05-22T05:16:06.325Z,69.70
2023-05-22T05:19:08.119Z,69.70
2023-05-22T05:22:10.138Z,69.90
2023-05-22T05:25:12.281Z,69.80
2023-05-22T05:28:13.989Z,69.90
2023-05-22T05:31:15.715Z,70.00
2023-05-22T05:34:17.438Z,70.00
2023-05-22T05:37:19.211Z,69.90
2023-05-22T05:40:20.907Z,69.90
2023-05-22T05:43:25.331Z,69.90
2023-05-22T05:46:27.196Z,69.80
2023-05-22T05:49:28.957Z,69.80
2023-05-22T05:52:32.753Z,69.70
2023-05-22T05:55:34.725Z,69.70
2023-05-22T05:58:36.534Z,69.70
2023-05-22T06:01:39.981Z,69.70
2023-05-22T06:04:42.640Z,69.60
2023-05-22T06:07:44.594Z,69.60
2023-05-22T06:10:47.274Z,69.60
2023-05-22T06:13:49.209Z,69.60
2023-05-22T06:16:50.940Z,69.50
2023-05-22T06:19:52.658Z,69.40
2023-05-22T06:22:54.537Z,69.30
2023-05-22T06:25:56.322Z,69.10
2023-05-22T06:28:58.147Z,68.70
2023-05-22T06:32:00.115Z,68.50
2023-05-22T06:35:01.998Z,68.30
2023-05-22T06:38:04.011Z,68.10
2023-05-22T06:41:06.461Z,67.90
2023-05-22T06:44:08.182Z,67.70
2023-05-22T06:47:10.073Z,67.70
2023-05-22T06:50:11.928Z,67.60
2023-05-22T06:53:13.796Z,67.50
2023-05-22T06:56:15.513Z,67.50
2023-05-22T06:59:17.327Z,67.50
2023-05-22T07:02:19.102Z,67.50
2023-05-22T07:05:20.866Z,67.50
2023-05-22T07:08:22.598Z,67.50
2023-05-22T07:11:24.434Z,67.40
2023-05-22T07:14:26.554Z,67.30
2023-05-22T07:17:28.445Z,67.10
2023-05-22T07:20:30.309Z,66.90
2023-05-22T07:23:32.183Z,66.60
2023-05-22T07:26:37.394Z,66.40
2023-05-22T07:29:39.276Z,66.00
2023-05-22T07:32:41.436Z,65.60
2023-05-22T07:35:45.637Z,65.30
2023-05-22T07:38:47.399Z,65.00
2023-05-22T07:41:53.301Z,64.80
2023-05-22T07:44:56.165Z,64.40
2023-05-22T07:47:59.042Z,64.00
2023-05-22T07:51:00.863Z,63.40
2023-05-22T07:54:02.639Z,63.00
2023-05-22T07:57:04.477Z,62.90
2023-05-22T08:00:09.431Z,62.90
2023-05-22T08:03:12.392Z,63.00
2023-05-22T08:06:16.219Z,63.00
2023-05-22T08:09:18.013Z,62.90
2023-05-22T08:12:19.825Z,62.50
2023-05-22T08:15:21.555Z,62.10
2023-05-22T08:18:23.272Z,61.80
2023-05-22T08:21:25.120Z,61.30
2023-05-22T08:24:28.601Z,60.90
2023-05-22T08:27:30.414Z,60.80
2023-05-22T08:30:32.094Z,61.00
2023-05-22T08:33:34.109Z,61.00
2023-05-22T08:36:35.820Z,61.50
2023-05-22T08:39:37.633Z,61.40
2023-05-22T08:42:39.363Z,61.30
2023-05-22T08:45:42.485Z,61.10
2023-05-22T08:48:44.901Z,61.00
2023-05-22T08:51:48.259Z,60.70
2023-05-22T08:54:55.181Z,60.60
2023-05-22T08:57:57.333Z,60.40
2023-05-22T09:00:59.064Z,60.30
2023-05-22T09:04:01.891Z,60.20
2023-05-22T09:07:05.517Z,60.20
2023-05-22T09:10:07.972Z,60.00
2023-05-22T09:13:09.850Z,60.00
2023-05-22T09:16:12.629Z,60.20
2023-05-22T09:19:17.605Z,60.20
2023-05-22T09:22:20.460Z,60.40
2023-05-22T09:25:23.549Z,60.50
2023-05-22T09:28:25.538Z,60.60
2023-05-22T09:31:28.946Z,60.40
2023-05-22T09:34:30.823Z,60.40
2023-05-22T09:37:36.299Z,60.20
2023-05-22T09:40:38.784Z,59.80
2023-05-22T09:43:40.831Z,59.60
2023-05-22T09:46:45.197Z,59.40
2023-05-22T09:49:47.508Z,59.10
2023-05-22T09:52:49.285Z,59.00
2023-05-22T09:55:50.983Z,59.10
2023-05-22T09:58:52.761Z,59.30
2023-05-22T10:01:54.560Z,59.50
2023-05-22T10:04:56.436Z,59.70
2023-05-22T10:08:04.019Z,59.90
2023-05-22T10:11:06.420Z,60.00
2023-05-22T10:14:08.249Z,60.20
2023-05-22T10:17:11.324Z,60.40
2023-05-22T10:20:13.255Z,60.50
2023-05-22T10:23:17.810Z,60.50
2023-05-22T10:26:19.950Z,60.40
2023-05-22T10:29:46.805Z,60.30
2023-05-22T10:32:56.834Z,60.00
2023-05-22T10:36:03.975Z,59.50
2023-05-22T10:40:13.457Z,59.00
2023-05-22T10:43:15.305Z,58.50
2023-05-22T10:46:17.170Z,57.90
2023-05-22T10:49:23.377Z,57.20
2023-05-22T10:52:25.200Z,56.70
2023-05-22T10:55:26.909Z,56.10
2023-05-22T10:58:29.353Z,55.30
2023-05-22T11:01:35.241Z,55.00
2023-05-22T11:04:37.051Z,54.90
2023-05-22T11:07:40.920Z,54.60
2023-05-22T11:10:53.117Z,54.50
2023-05-22T11:14:03.206Z,54.40
2023-05-22T11:17:08.362Z,54.00
2023-05-22T11:20:20.261Z,53.50
2023-05-22T11:23:23.803Z,53.50
2023-05-22T11:26:27.841Z,53.40
2023-05-22T11:29:30.471Z,53.40
2023-05-22T11:32:32.450Z,53.70
2023-05-22T11:35:34.264Z,53.60
2023-05-22T11:38:36.125Z,53.30
2023-05-22T11:41:38.061Z,52.80
2023-05-22T11:44:40.547Z,52.30
2023-05-22T11:47:43.537Z,52.40
2023-05-22T11:50:45.440Z,52.00
2023-05-22T11:53:48.020Z,51.90
2023-05-22T11:56:49.715Z,51.70
2023-05-22T11:59:51.742Z,51.50
2023-05-22T12:02:53.591Z,51.60
2023-05-22T12:05:55.644Z,52.00
2023-05-22T12:08:57.351Z,52.20
2023-05-22T12:11:59.140Z,52.40
2023-05-22T12:15:00.931Z,52.60
2023-05-22T12:18:02.756Z,52.80
2023-05-22T12:21:08.242Z,53.10
2023-05-22T12:24:10.558Z,53.30
2023-05-22T12:27:12.759Z,53.40
2023-05-22T12:30:15.010Z,53.40
2023-05-22T12:33:17.099Z,53.40
2023-05-22T12:36:18.806Z,53.70
2023-05-22T12:39:21.229Z,53.70
2023-05-22T12:42:23.124Z,53.60
2023-05-22T12:45:25.068Z,53.50
2023-05-22T12:48:26.791Z,53.40
2023-05-22T12:51:35.559Z,53.30
2023-05-22T12:54:37.298Z,53.20
2023-05-22T12:57:39.027Z,53.20
2023-05-22T13:00:41.200Z,53.10
2023-05-22T13:03:43.171Z,53.20
2023-05-22T13:06:44.864Z,53.40
2023-05-22T13:09:46.556Z,53.30
2023-05-22T13:12:51.090Z,53.40
2023-05-22T13:15:52.768Z,53.40
2023-05-22T13:18:54.588Z,53.60
2023-05-22T13:21:56.411Z,53.80
2023-05-22T13:24:58.076Z,54.00
2023-05-22T13:28:00.173Z,54.00
2023-05-22T13:31:01.982Z,54.00
2023-05-22T13:34:04.586Z,54.00
2023-05-22T13:37:06.310Z,54.10
2023-05-22T13:40:08.782Z,53.90
2023-05-22T13:43:10.971Z,53.70
2023-05-22T13:46:12.770Z,53.40
2023-05-22T13:49:14.488Z,53.00
2023-05-22T13:52:16.371Z,52.90
2023-05-22T13:55:18.126Z,52.90
2023-05-22T13:58:19.815Z,53.00
2023-05-22T14:01:21.565Z,52.80
2023-05-22T14:04:23.459Z,52.70
2023-05-22T14:07:25.198Z,52.80
2023-05-22T14:10:26.914Z,52.80
2023-05-22T14:13:28.811Z,52.70
2023-05-22T14:16:30.742Z,52.70
2023-05-22T14:19:32.549Z,52.30
2023-05-22T14:22:47.932Z,52.00
2023-05-22T14:25:56.768Z,51.80
2023-05-22T14:28:58.516Z,51.60
2023-05-22T14:32:04.269Z,51.40
2023-05-22T14:35:06.333Z,51.10
2023-05-22T14:38:08.054Z,50.80
2023-05-22T14:41:10.667Z,50.80
2023-05-22T14:44:12.434Z,51.00
2023-05-22T14:47:14.156Z,51.00
2023-05-22T14:50:19.726Z,51.10
2023-05-22T14:53:22.069Z,51.20
2023-05-22T14:56:24.706Z,51.20
2023-05-22T14:59:26.473Z,51.40
2023-05-22T15:02:28.265Z,51.10
2023-05-22T15:05:30.156Z,51.20
2023-05-22T15:08:31.858Z,51.30
2023-05-22T15:11:33.612Z,51.30
2023-05-22T15:14:35.476Z,51.10
2023-05-22T15:17:37.167Z,50.90
2023-05-22T15:20:39.547Z,50.60
2023-05-22T15:23:41.613Z,50.50
2023-05-22T15:26:43.323Z,50.40
2023-05-22T15:29:45.032Z,50.00
2023-05-22T15:32:47.016Z,49.50
2023-05-22T15:35:48.750Z,49.10
2023-05-22T15:38:50.519Z,48.60
2023-05-22T15:42:05.236Z,48.00
2023-05-22T15:45:08.521Z,47.50
2023-05-22T15:48:10.719Z,46.80
2023-05-22T15:51:12.739Z,45.90
2023-05-22T15:54:14.409Z,45.70
2023-05-22T15:57:16.372Z,45.30
2023-05-22T16:00:18.822Z,44.70
2023-05-22T16:03:20.753Z,44.30
2023-05-22T16:06:23.283Z,44.20
2023-05-22T16:09:25.150Z,44.00
2023-05-22T16:12:26.885Z,44.10
2023-05-22T16:15:28.632Z,44.10
2023-05-22T16:18:30.435Z,44.40
2023-05-22T16:21:32.291Z,44.20
2023-05-22T16:24:34.204Z,44.10
2023-05-22T16:27:35.915Z,44.10
2023-05-22T16:30:39.889Z,44.00
2023-05-22T16:33:41.883Z,44.50
2023-05-22T16:36:43.872Z,45.40
2023-05-22T16:39:46.425Z,46.00
2023-05-22T16:42:48.468Z,46.50
2023-05-22T16:45:51.300Z,46.70
2023-05-22T16:48:53.102Z,46.90
2023-05-22T16:51:55.389Z,47.00
2023-05-22T16:54:57.056Z,47.30
2023-05-22T16:57:59.148Z,47.40
2023-05-22T17:01:01.382Z,47.50
2023-05-22T17:04:03.224Z,47.70
2023-05-22T17:07:05.607Z,47.80
2023-05-22T17:10:07.753Z,47.90
2023-05-22T17:13:10.404Z,47.90
2023-05-22T17:16:12.145Z,47.80
2023-05-22T17:19:13.902Z,47.80
2023-05-22T17:22:16.330Z,47.80
2023-05-22T17:25:18.145Z,47.80
2023-05-22T17:28:19.963Z,47.90
2023-05-22T17:31:22.773Z,47.70
2023-05-22T17:34:24.539Z,47.90
2023-05-22T17:37:26.217Z,48.10
2023-05-22T17:40:43.144Z,48.10
2023-05-22T17:43:46.654Z,48.20
2023-05-22T17:46:49.464Z,48.10
2023-05-22T17:49:51.208Z,48.10
2023-05-22T17:52:53.259Z,48.20
2023-05-22T17:55:54.933Z,48.20
2023-05-22T17:58:56.798Z,48.00
2023-05-22T18:01:58.639Z,47.00
2023-05-22T18:05:00.379Z,46.50
2023-05-22T18:08:02.118Z,46.00
2023-05-22T18:11:05.068Z,45.90
2023-05-22T18:14:06.811Z,45.70
2023-05-22T18:17:08.497Z,45.50
2023-05-22T18:20:12.120Z,45.60
2023-05-22T18:23:16.242Z,45.60
2023-05-22T18:26:18.038Z,45.10
2023-05-22T18:29:19.822Z,45.30
2023-05-22T18:32:24.807Z,45.30
2023-05-22T18:35:26.499Z,45.50
2023-05-22T18:38:29.959Z,45.50
2023-05-22T18:41:32.001Z,45.60
2023-05-22T18:44:33.722Z,45.70
2023-05-22T18:47:35.607Z,45.50
2023-05-22T18:50:37.369Z,45.40
2023-05-22T18:53:39.179Z,45.30
2023-05-22T18:56:41.015Z,45.20
2023-05-22T18:59:43.499Z,45.00
2023-05-22T19:02:45.313Z,45.10
2023-05-22T19:05:47.043Z,44.90
2023-05-22T19:08:49.112Z,44.70
2023-05-22T19:11:50.959Z,44.40
2023-05-22T19:14:52.706Z,44.50
2023-05-22T19:17:54.718Z,44.60
2023-05-22T19:20:56.580Z,44.80
2023-05-22T19:23:58.363Z,44.90
2023-05-22T19:27:00.088Z,45.10
2023-05-22T19:30:01.823Z,45.30
2023-05-22T19:33:04.450Z,45.50
2023-05-22T19:36:07.318Z,45.70
2023-05-22T19:39:09.088Z,46.00
2023-05-22T19:42:11.263Z,46.20
2023-05-22T19:45:13.018Z,46.40
2023-05-22T19:48:14.915Z,46.70
2023-05-22T19:51:16.926Z,46.90
2023-05-22T19:54:18.631Z,47.10
2023-05-22T19:57:20.420Z,47.30
2023-05-22T20:00:22.707Z,47.60
2023-05-22T20:03:24.752Z,47.70
2023-05-22T20:06:31.261Z,48.00
2023-05-22T20:09:32.996Z,48.20
2023-05-22T20:12:34.877Z,48.40
2023-05-22T20:15:37.909Z,48.60
2023-05-22T20:18:41.021Z,48.80
2023-05-22T20:21:43.071Z,49.00
2023-05-22T20:24:44.744Z,49.20
2023-05-22T20:27:46.480Z,49.40
2023-05-22T20:30:49.127Z,49.60
2023-05-22T20:33:50.819Z,49.70
2023-05-22T20:36:55.880Z,50.00
2023-05-22T20:40:03.529Z,50.10
2023-05-22T20:43:05.362Z,50.30
2023-05-22T20:46:07.268Z,50.50
2023-05-22T20:49:09.070Z,50.70
2023-05-22T20:52:13.329Z,50.90
2023-05-22T20:55:15.052Z,51.10
2023-05-22T20:58:16.759Z,51.20
2023-05-22T21:01:18.742Z,51.40
2023-05-22T21:04:20.704Z,51.50
2023-05-22T21:07:22.496Z,51.70
2023-05-22T21:10:24.271Z,51.80
2023-05-22T21:13:26.188Z,51.90
2023-05-22T21:16:27.964Z,52.00
2023-05-22T21:19:29.749Z,52.20
2023-05-22T21:22:31.737Z,52.20
2023-05-22T21:25:33.495Z,52.40
2023-05-22T21:28:35.192Z,52.50
2023-05-22T21:31:37.083Z,52.50
2023-05-22T21:34:38.847Z,52.70
2023-05-22T21:37:40.716Z,52.80
